4M0 weather

Lake Ann Airway Estates Airport
Traverse City, Michigan, United States

Public forecast

Using degrees Fahrenheit for public forecast. Weather courtesy of forecast.io.

METAR (pilot weather report)

Closest report is Frankfort Dow Memorial Field, 13.0 nm (24.1 km) WSW. Retrieved 2019/06/19 18:39 UTC (0 seconds ago):

KFKS 191839Z AUTO 35008KT 10SM CLR 20/13 A2980 RMK AO2 T01960126

TAF (pilot weather forecast)

Closest forecast is Cherry Capital Airport, 14.4 nm (26.6 km) E. Retrieved 2019/06/19 12:34 UTC (6 hours ago):

TAF KTVC 191132Z 1912/2012 00000KT P6SM VCSH OVC015 TEMPO 1912/1914 OVC004 FM191600 01005KT P6SM VCSH BKN025 FM191800 01005KT P6SM BKN040 FM192100 01007KT P6SM SCT090 FM200300 VRB03KT P6SM BKN050